createdAt,value
2024-01-25T00:00:17.339Z,6.27
2024-01-25T00:03:06.030Z,6.25
2024-01-25T00:05:34.270Z,6.22
2024-01-25T00:08:02.290Z,6.21
2024-01-25T00:10:30.073Z,6.18
2024-01-25T00:12:58.559Z,6.14
2024-01-25T00:15:26.368Z,6.12
2024-01-25T00:17:55.038Z,6.09
2024-01-25T00:20:23.152Z,6.04
2024-01-25T00:22:51.557Z,6.00
2024-01-25T00:25:19.487Z,5.95
2024-01-25T00:27:48.970Z,5.92
2024-01-25T00:30:16.817Z,5.89
2024-01-25T00:32:45.271Z,5.87
2024-01-25T00:35:15.829Z,5.86
2024-01-25T00:37:44.140Z,5.84
2024-01-25T00:40:14.939Z,5.84
2024-01-25T00:42:54.596Z,5.85
2024-01-25T00:45:24.082Z,5.86
2024-01-25T00:47:52.437Z,5.87
2024-01-25T00:50:26.974Z,5.90
2024-01-25T00:52:55.656Z,5.93
2024-01-25T00:55:24.168Z,5.95
2024-01-25T00:57:53.276Z,5.98
2024-01-25T01:00:22.193Z,5.99
2024-01-25T01:02:50.386Z,6.01
2024-01-25T01:05:19.492Z,6.03
2024-01-25T01:07:48.144Z,6.06
2024-01-25T01:10:16.213Z,6.08
2024-01-25T01:12:44.471Z,6.09
2024-01-25T01:15:12.563Z,6.10
2024-01-25T01:17:40.423Z,6.10
2024-01-25T01:20:09.015Z,6.10
2024-01-25T01:22:37.374Z,6.09
2024-01-25T01:25:06.607Z,6.08
2024-01-25T01:27:34.624Z,6.07
2024-01-25T01:30:02.700Z,6.06
2024-01-25T01:32:30.436Z,6.06
2024-01-25T01:34:58.351Z,6.06
2024-01-25T01:37:26.410Z,6.05
2024-01-25T01:39:57.390Z,6.05
2024-01-25T01:42:25.279Z,6.06
2024-01-25T01:44:54.189Z,6.06
2024-01-25T01:47:22.663Z,6.06
2024-01-25T01:49:50.818Z,6.07
2024-01-25T01:52:19.909Z,6.07
2024-01-25T01:54:49.164Z,6.07
2024-01-25T01:57:17.611Z,6.07
2024-01-25T01:59:45.961Z,6.07
2024-01-25T02:02:13.856Z,6.07
2024-01-25T02:04:42.235Z,6.08
2024-01-25T02:07:10.446Z,6.08
2024-01-25T02:09:38.461Z,6.08
2024-01-25T02:12:08.544Z,6.09
2024-01-25T02:14:36.689Z,6.08
2024-01-25T02:17:05.485Z,6.09
2024-01-25T02:19:33.753Z,6.09
2024-01-25T02:22:05.451Z,6.10
2024-01-25T02:24:33.753Z,6.10
2024-01-25T02:27:02.036Z,6.09
2024-01-25T02:29:29.996Z,6.08
2024-01-25T02:31:57.763Z,6.07
2024-01-25T02:34:25.529Z,6.06
2024-01-25T02:36:53.462Z,6.04
2024-01-25T02:39:21.382Z,6.03
2024-01-25T02:41:49.068Z,6.02
2024-01-25T02:44:17.944Z,6.01
2024-01-25T02:46:46.006Z,6.00
2024-01-25T02:49:13.940Z,5.99
2024-01-25T02:51:41.948Z,5.96
2024-01-25T02:54:09.800Z,5.94
2024-01-25T02:56:37.624Z,5.92
2024-01-25T02:59:05.316Z,5.90
2024-01-25T03:01:43.303Z,5.87
2024-01-25T03:04:12.541Z,5.85
2024-01-25T03:06:41.627Z,5.83
2024-01-25T03:09:09.563Z,5.81
2024-01-25T03:11:37.346Z,5.79
2024-01-25T03:14:05.397Z,5.77
2024-01-25T03:16:33.237Z,5.76
2024-01-25T03:19:01.141Z,5.75
2024-01-25T03:21:30.401Z,5.74
2024-01-25T03:23:58.310Z,5.71
2024-01-25T03:26:28.472Z,5.70
2024-01-25T03:28:56.288Z,5.68
2024-01-25T03:31:24.075Z,5.66
2024-01-25T03:33:52.010Z,5.64
2024-01-25T03:36:19.961Z,5.63
2024-01-25T03:38:47.670Z,5.61
2024-01-25T03:41:15.429Z,5.60
2024-01-25T03:43:44.819Z,5.62
2024-01-25T03:46:13.338Z,5.68
2024-01-25T03:48:41.477Z,5.64
2024-01-25T03:51:09.971Z,5.57
2024-01-25T03:53:38.719Z,5.52
2024-01-25T03:56:13.325Z,5.47
2024-01-25T03:58:41.175Z,5.42
2024-01-25T04:01:09.201Z,5.39
2024-01-25T04:03:37.757Z,5.35
2024-01-25T04:06:05.995Z,5.32
2024-01-25T04:08:33.913Z,5.29
2024-01-25T04:11:01.647Z,5.26
2024-01-25T04:13:30.022Z,5.23
2024-01-25T04:15:57.927Z,5.21
2024-01-25T04:18:25.788Z,5.21
2024-01-25T04:20:53.669Z,5.21
2024-01-25T04:23:21.379Z,5.21
2024-01-25T04:25:50.107Z,5.22
2024-01-25T04:28:17.959Z,5.22
2024-01-25T04:30:45.899Z,5.21
2024-01-25T04:33:13.742Z,5.20
2024-01-25T04:35:41.650Z,5.19
2024-01-25T04:38:09.681Z,5.17
2024-01-25T04:40:37.832Z,5.16
2024-01-25T04:43:05.803Z,5.16
2024-01-25T04:45:34.041Z,5.15
2024-01-25T04:48:02.128Z,5.15
2024-01-25T04:50:30.135Z,5.13
2024-01-25T04:52:58.276Z,5.12
2024-01-25T04:55:26.485Z,5.11
2024-01-25T04:57:54.756Z,5.09
2024-01-25T05:00:23.815Z,5.09
2024-01-25T05:02:51.588Z,5.07
2024-01-25T05:05:19.654Z,5.07
2024-01-25T05:07:47.606Z,5.06
2024-01-25T05:10:15.529Z,5.07
2024-01-25T05:12:43.555Z,5.08
2024-01-25T05:15:11.767Z,5.09
2024-01-25T05:17:40.871Z,5.09
2024-01-25T05:20:10.034Z,5.09
2024-01-25T05:22:41.428Z,5.10
2024-01-25T05:25:09.633Z,5.11
2024-01-25T05:27:37.452Z,5.11
2024-01-25T05:30:06.282Z,5.11
2024-01-25T05:32:35.439Z,5.11
2024-01-25T05:35:05.010Z,5.12
2024-01-25T05:37:34.810Z,5.12
2024-01-25T05:40:02.655Z,5.17
2024-01-25T05:42:30.508Z,5.20
2024-01-25T05:44:58.441Z,5.20
2024-01-25T05:47:26.675Z,5.20
2024-01-25T05:49:54.977Z,5.20
2024-01-25T05:52:23.351Z,5.21
2024-01-25T05:54:51.717Z,5.22
2024-01-25T05:57:20.529Z,5.23
2024-01-25T05:59:48.696Z,5.23
2024-01-25T06:02:16.890Z,5.24
2024-01-25T06:04:46.107Z,5.25
2024-01-25T06:07:15.057Z,5.25
2024-01-25T06:09:43.213Z,5.26
2024-01-25T06:12:11.479Z,5.25
2024-01-25T06:14:39.387Z,5.26
2024-01-25T06:17:09.001Z,5.26
2024-01-25T06:19:37.036Z,5.27
2024-01-25T06:22:05.048Z,5.28
2024-01-25T06:24:33.428Z,5.27
2024-01-25T06:27:01.958Z,5.28
2024-01-25T06:29:29.641Z,5.28
2024-01-25T06:31:58.513Z,5.28
2024-01-25T06:34:27.566Z,5.29
2024-01-25T06:36:56.043Z,5.29
2024-01-25T06:39:23.998Z,5.29
2024-01-25T06:41:51.868Z,5.28
2024-01-25T06:44:20.270Z,5.27
2024-01-25T06:46:48.049Z,5.28
2024-01-25T06:49:15.944Z,5.28
2024-01-25T06:51:44.003Z,5.28
2024-01-25T06:54:13.059Z,5.27
2024-01-25T06:56:41.151Z,5.28
2024-01-25T06:59:08.861Z,5.27
2024-01-25T07:01:37.798Z,5.26
2024-01-25T07:04:06.238Z,5.23
2024-01-25T07:06:37.257Z,5.21
2024-01-25T07:09:05.980Z,5.18
2024-01-25T07:11:33.923Z,5.17
2024-01-25T07:14:01.607Z,5.14
2024-01-25T07:16:31.556Z,5.12
2024-01-25T07:18:59.462Z,5.10
2024-01-25T07:21:27.786Z,5.08
2024-01-25T07:23:55.495Z,5.06
2024-01-25T07:26:23.640Z,5.05
2024-01-25T07:28:55.013Z,5.04
2024-01-25T07:31:22.903Z,5.02
2024-01-25T07:33:50.778Z,5.01
2024-01-25T07:36:19.782Z,5.00
2024-01-25T07:38:48.152Z,5.00
2024-01-25T07:41:16.665Z,5.00
2024-01-25T07:43:44.585Z,5.00
2024-01-25T07:46:12.551Z,5.00
2024-01-25T07:48:41.189Z,5.03
2024-01-25T07:51:14.465Z,5.04
2024-01-25T07:53:42.669Z,5.06
2024-01-25T07:56:12.026Z,5.07
2024-01-25T07:58:41.959Z,5.06
2024-01-25T08:01:10.707Z,5.09
2024-01-25T08:03:38.813Z,5.09
2024-01-25T08:06:07.297Z,5.09
2024-01-25T08:08:35.174Z,5.11
2024-01-25T08:11:03.209Z,5.12
2024-01-25T08:13:35.474Z,5.13
2024-01-25T08:16:03.947Z,5.14
2024-01-25T08:18:32.426Z,5.14
2024-01-25T08:21:02.205Z,5.15
2024-01-25T08:23:30.161Z,5.15
2024-01-25T08:25:58.001Z,5.14
2024-01-25T08:28:26.712Z,5.14
2024-01-25T08:30:54.704Z,5.13
2024-01-25T08:33:22.684Z,5.11
2024-01-25T08:35:50.663Z,5.09
2024-01-25T08:38:18.449Z,5.08
2024-01-25T08:40:46.262Z,5.07
2024-01-25T08:43:16.571Z,5.07
2024-01-25T08:45:44.949Z,5.07
2024-01-25T08:48:14.812Z,5.08
2024-01-25T08:50:42.828Z,5.10
2024-01-25T08:53:11.028Z,5.14
2024-01-25T08:55:38.827Z,5.17
2024-01-25T08:58:07.074Z,5.20
2024-01-25T09:00:35.038Z,5.21
2024-01-25T09:03:02.914Z,5.21
2024-01-25T09:05:32.808Z,5.21
2024-01-25T09:08:00.892Z,5.22
2024-01-25T09:10:29.039Z,5.21
2024-01-25T09:12:56.860Z,5.21
2024-01-25T09:15:24.640Z,5.21
2024-01-25T09:17:52.432Z,5.21
2024-01-25T09:20:20.380Z,5.21
2024-01-25T09:22:48.269Z,5.21
2024-01-25T09:25:16.889Z,5.22
2024-01-25T09:27:45.102Z,5.23
2024-01-25T09:30:13.698Z,5.25
2024-01-25T09:32:41.728Z,5.26
2024-01-25T09:35:09.770Z,5.25
2024-01-25T09:37:37.968Z,5.24
2024-01-25T09:40:07.349Z,5.24
2024-01-25T09:42:37.170Z,5.23
2024-01-25T09:45:08.330Z,5.24
2024-01-25T09:47:36.209Z,5.27
2024-01-25T09:50:06.314Z,5.31
2024-01-25T09:52:35.725Z,5.34
2024-01-25T09:55:07.903Z,5.34
2024-01-25T09:57:40.883Z,5.35
2024-01-25T10:00:13.086Z,5.35
2024-01-25T10:02:41.417Z,5.37
2024-01-25T10:05:09.551Z,5.37
2024-01-25T10:07:42.791Z,5.40
2024-01-25T10:10:12.177Z,5.40
2024-01-25T10:12:42.097Z,5.40
2024-01-25T10:15:11.612Z,5.37
2024-01-25T10:17:58.802Z,5.34
2024-01-25T10:20:32.676Z,5.31
2024-01-25T10:23:01.778Z,5.29
2024-01-25T10:25:30.462Z,5.27
2024-01-25T10:27:59.159Z,5.24
2024-01-25T10:30:28.539Z,5.22
2024-01-25T10:32:57.291Z,5.20
2024-01-25T10:35:27.755Z,5.19
2024-01-25T10:37:56.293Z,5.19
2024-01-25T10:40:24.538Z,5.18
2024-01-25T10:42:53.273Z,5.17
2024-01-25T10:45:21.489Z,5.16
2024-01-25T10:47:50.487Z,5.16
2024-01-25T10:50:18.801Z,5.16
2024-01-25T10:52:47.652Z,5.16
2024-01-25T10:55:17.717Z,5.15
2024-01-25T10:57:47.243Z,5.16
2024-01-25T11:00:17.597Z,5.18
2024-01-25T11:02:50.931Z,5.19
2024-01-25T11:05:22.939Z,5.20
2024-01-25T11:07:52.624Z,5.21
2024-01-25T11:10:22.384Z,5.22
2024-01-25T11:12:50.342Z,5.23
2024-01-25T11:15:20.934Z,5.25
2024-01-25T11:17:54.029Z,5.27
2024-01-25T11:20:24.542Z,5.30
2024-01-25T11:22:57.614Z,5.31
2024-01-25T11:25:31.832Z,5.32
2024-01-25T11:28:04.714Z,5.34
2024-01-25T11:30:36.634Z,5.35
2024-01-25T11:33:09.238Z,5.36
2024-01-25T11:35:37.724Z,5.38
2024-01-25T11:38:05.660Z,5.38
2024-01-25T11:40:37.491Z,5.41
2024-01-25T11:43:12.479Z,5.41
2024-01-25T11:45:44.606Z,5.40
2024-01-25T11:48:13.316Z,5.40
2024-01-25T11:50:41.711Z,5.38
2024-01-25T11:53:10.891Z,5.37
2024-01-25T11:55:38.764Z,5.35
2024-01-25T11:58:07.659Z,5.33
2024-01-25T12:00:36.200Z,5.33
2024-01-25T12:03:04.984Z,5.32
2024-01-25T12:05:33.254Z,5.31
2024-01-25T12:08:01.594Z,5.29
2024-01-25T12:10:30.025Z,5.29
2024-01-25T12:12:58.063Z,5.29
2024-01-25T12:15:25.901Z,5.28
2024-01-25T12:17:55.254Z,5.28
2024-01-25T12:20:23.617Z,5.27
2024-01-25T12:22:51.989Z,5.27
2024-01-25T12:25:19.842Z,5.27
2024-01-25T12:27:51.603Z,5.27
2024-01-25T12:30:19.446Z,5.27
2024-01-25T12:32:50.970Z,5.26
2024-01-25T12:35:19.113Z,5.26
2024-01-25T12:37:46.965Z,5.25
2024-01-25T12:40:15.130Z,5.24
2024-01-25T12:42:43.224Z,5.21
2024-01-25T12:45:11.239Z,5.20
2024-01-25T12:47:39.089Z,5.17
2024-01-25T12:50:07.529Z,5.15
2024-01-25T12:52:35.400Z,5.13
2024-01-25T12:55:04.432Z,5.11
2024-01-25T12:57:33.131Z,5.10
2024-01-25T13:00:01.647Z,5.10
2024-01-25T13:02:30.436Z,5.11
2024-01-25T13:04:58.449Z,5.10
2024-01-25T13:07:26.456Z,5.09
2024-01-25T13:09:54.193Z,5.07
2024-01-25T13:12:22.989Z,5.06
2024-01-25T13:14:52.089Z,5.03
2024-01-25T13:17:22.448Z,5.00
2024-01-25T13:19:50.287Z,4.96
2024-01-25T13:22:22.273Z,4.86
2024-01-25T13:24:50.724Z,4.75
2024-01-25T13:27:18.872Z,4.65
2024-01-25T13:29:46.706Z,4.54
2024-01-25T13:32:14.425Z,4.44
2024-01-25T13:34:42.225Z,4.34
2024-01-25T13:37:10.112Z,4.28
2024-01-25T13:39:38.082Z,4.21
2024-01-25T13:42:06.297Z,4.15
2024-01-25T13:44:34.134Z,4.10
2024-01-25T13:47:02.909Z,4.05
2024-01-25T13:49:30.879Z,4.00
2024-01-25T13:52:01.841Z,3.95
2024-01-25T13:54:30.474Z,3.89
2024-01-25T13:56:58.435Z,3.86
2024-01-25T13:59:26.925Z,3.82
2024-01-25T14:01:54.896Z,3.79
2024-01-25T14:04:22.859Z,3.77
2024-01-25T14:06:51.545Z,3.73
2024-01-25T14:09:19.869Z,3.68
2024-01-25T14:11:47.860Z,3.63
2024-01-25T14:14:15.605Z,3.59
2024-01-25T14:16:43.478Z,3.55
2024-01-25T14:19:11.305Z,3.52
2024-01-25T14:21:39.460Z,3.48
2024-01-25T14:24:07.578Z,3.45
2024-01-25T14:26:35.319Z,3.42
2024-01-25T14:29:03.120Z,3.38
2024-01-25T14:31:30.929Z,3.36
2024-01-25T14:33:58.932Z,3.33
2024-01-25T14:36:26.952Z,3.30
2024-01-25T14:38:54.677Z,3.27
2024-01-25T14:41:22.558Z,3.24
2024-01-25T14:43:50.335Z,3.21
2024-01-25T14:46:19.194Z,3.19
2024-01-25T14:48:47.282Z,3.17
2024-01-25T14:51:15.356Z,3.14
2024-01-25T14:53:43.691Z,3.12
2024-01-25T14:56:13.610Z,3.11
2024-01-25T14:58:41.411Z,3.08
2024-01-25T15:01:09.151Z,3.06
2024-01-25T15:03:37.107Z,3.04
2024-01-25T15:06:05.299Z,3.02
2024-01-25T15:08:33.084Z,2.99
2024-01-25T15:11:01.203Z,2.95
2024-01-25T15:13:28.913Z,2.92
2024-01-25T15:15:56.941Z,2.89
2024-01-25T15:18:24.993Z,2.86
2024-01-25T15:20:54.281Z,2.83
2024-01-25T15:23:22.057Z,2.79
2024-01-25T15:25:51.067Z,2.75
2024-01-25T15:28:21.113Z,2.71
2024-01-25T15:30:49.393Z,2.66
2024-01-25T15:33:17.364Z,2.61
2024-01-25T15:35:45.351Z,2.57
2024-01-25T15:38:16.669Z,2.54
2024-01-25T15:40:45.147Z,2.52
2024-01-25T15:43:12.843Z,2.50
2024-01-25T15:45:40.584Z,2.48
2024-01-25T15:48:08.572Z,2.45
2024-01-25T15:50:36.348Z,2.42
2024-01-25T15:53:04.263Z,2.38
2024-01-25T15:55:32.303Z,2.36
2024-01-25T15:58:00.305Z,2.34
2024-01-25T16:00:28.383Z,2.33
2024-01-25T16:02:58.028Z,2.33
2024-01-25T16:05:26.797Z,2.35
2024-01-25T16:07:54.582Z,2.37
2024-01-25T16:10:22.534Z,2.40
2024-01-25T16:12:51.045Z,2.42
2024-01-25T16:15:19.721Z,2.46
2024-01-25T16:17:47.747Z,2.49
2024-01-25T16:20:17.863Z,2.51
2024-01-25T16:22:45.570Z,2.53
2024-01-25T16:25:13.616Z,2.55
2024-01-25T16:27:41.531Z,2.57
2024-01-25T16:30:10.041Z,2.59
2024-01-25T16:32:38.018Z,2.60
2024-01-25T16:35:06.379Z,2.61
2024-01-25T16:37:34.234Z,2.61
2024-01-25T16:40:02.103Z,2.62
2024-01-25T16:42:30.005Z,2.62
2024-01-25T16:44:57.814Z,2.61
2024-01-25T16:47:25.486Z,2.62
2024-01-25T16:49:53.333Z,2.62
2024-01-25T16:52:21.115Z,2.62
2024-01-25T16:54:49.197Z,2.62
2024-01-25T16:57:16.960Z,2.61
2024-01-25T16:59:44.761Z,2.60
2024-01-25T17:02:12.580Z,2.58
2024-01-25T17:04:40.495Z,2.57
2024-01-25T17:07:08.673Z,2.56
2024-01-25T17:09:36.572Z,2.56
2024-01-25T17:12:05.033Z,2.55
2024-01-25T17:14:32.746Z,2.54
2024-01-25T17:17:00.573Z,2.54
2024-01-25T17:19:28.853Z,2.54
2024-01-25T17:21:56.935Z,2.54
2024-01-25T17:24:24.847Z,2.54
2024-01-25T17:26:52.748Z,2.55
2024-01-25T17:29:20.749Z,2.55
2024-01-25T17:31:49.234Z,2.56
2024-01-25T17:34:17.653Z,2.57
2024-01-25T17:36:45.841Z,2.59
2024-01-25T17:39:14.987Z,2.59
2024-01-25T17:41:42.860Z,2.61
2024-01-25T17:44:12.955Z,2.62
2024-01-25T17:46:40.664Z,2.63
2024-01-25T17:49:09.335Z,2.64
2024-01-25T17:51:37.927Z,2.65
2024-01-25T17:54:05.862Z,2.65
2024-01-25T17:56:38.840Z,2.64
2024-01-25T17:59:08.265Z,2.64
2024-01-25T18:01:36.331Z,2.62
2024-01-25T18:04:04.487Z,2.60
2024-01-25T18:06:32.609Z,2.60
2024-01-25T18:09:00.406Z,2.58
2024-01-25T18:11:28.146Z,2.57
2024-01-25T18:13:56.984Z,2.57
2024-01-25T18:16:24.681Z,2.57
2024-01-25T18:18:52.603Z,2.57
2024-01-25T18:21:20.587Z,2.56
2024-01-25T18:23:48.772Z,2.57
2024-01-25T18:26:16.527Z,2.56
2024-01-25T18:28:44.228Z,2.57
2024-01-25T18:31:12.062Z,2.57
2024-01-25T18:33:39.926Z,2.58
2024-01-25T18:36:11.867Z,2.58
2024-01-25T18:38:40.665Z,2.57
2024-01-25T18:41:10.965Z,2.58
2024-01-25T18:43:39.217Z,2.57
2024-01-25T18:46:09.842Z,2.56
2024-01-25T18:48:37.774Z,2.55
2024-01-25T18:51:07.954Z,2.54
2024-01-25T18:53:36.672Z,2.53
2024-01-25T18:56:04.809Z,2.52
2024-01-25T18:58:33.020Z,2.51
2024-01-25T19:01:01.424Z,2.51
2024-01-25T19:03:29.528Z,2.52
2024-01-25T19:05:59.111Z,2.50
2024-01-25T19:08:28.356Z,2.48
2024-01-25T19:10:56.147Z,2.47
2024-01-25T19:13:24.838Z,2.46
2024-01-25T19:15:52.693Z,2.45
2024-01-25T19:18:20.931Z,2.43
2024-01-25T19:20:49.132Z,2.42
2024-01-25T19:23:17.030Z,2.40
2024-01-25T19:25:44.759Z,2.39
2024-01-25T19:28:15.050Z,2.36
2024-01-25T19:30:45.156Z,2.33
2024-01-25T19:33:13.291Z,2.31
2024-01-25T19:35:47.488Z,2.28
2024-01-25T19:38:15.282Z,2.26
2024-01-25T19:40:46.892Z,2.22
2024-01-25T19:43:14.696Z,2.20
2024-01-25T19:45:42.576Z,2.17
2024-01-25T19:48:10.436Z,2.15
2024-01-25T19:50:38.938Z,2.13
2024-01-25T19:53:07.893Z,2.12
2024-01-25T19:55:35.996Z,2.10
2024-01-25T19:58:05.464Z,2.10
2024-01-25T20:00:34.221Z,2.08
2024-01-25T20:03:02.429Z,2.08
2024-01-25T20:05:33.128Z,2.07
2024-01-25T20:08:01.282Z,2.07
2024-01-25T20:10:29.202Z,2.06
2024-01-25T20:12:58.217Z,2.06
2024-01-25T20:15:26.560Z,2.06
2024-01-25T20:17:54.458Z,2.06
2024-01-25T20:20:30.932Z,2.06
2024-01-25T20:23:06.190Z,2.07
2024-01-25T20:25:33.977Z,2.07
2024-01-25T20:28:01.909Z,2.08
2024-01-25T20:30:34.735Z,2.08
2024-01-25T20:33:02.669Z,2.08
2024-01-25T20:35:30.678Z,2.09
2024-01-25T20:37:58.468Z,2.10
2024-01-25T20:40:26.307Z,2.10
2024-01-25T20:42:54.035Z,2.09
2024-01-25T20:45:23.423Z,2.09
2024-01-25T20:47:51.686Z,2.09
2024-01-25T20:50:26.269Z,2.09
2024-01-25T20:53:02.318Z,2.09
2024-01-25T20:55:30.174Z,2.08
2024-01-25T20:57:58.390Z,2.08
2024-01-25T21:00:26.331Z,2.07
2024-01-25T21:02:54.573Z,2.06
2024-01-25T21:05:23.163Z,2.06
2024-01-25T21:07:51.658Z,2.06
2024-01-25T21:10:21.007Z,2.05
2024-01-25T21:12:49.372Z,2.05
2024-01-25T21:15:17.570Z,2.05
2024-01-25T21:17:45.437Z,2.05
2024-01-25T21:20:13.390Z,2.06
2024-01-25T21:22:41.099Z,2.07
2024-01-25T21:25:11.781Z,2.08
2024-01-25T21:27:40.044Z,2.08
2024-01-25T21:30:09.074Z,2.09
2024-01-25T21:32:36.818Z,2.09
2024-01-25T21:35:06.518Z,2.09
2024-01-25T21:37:35.684Z,2.07
2024-01-25T21:40:04.511Z,2.08
2024-01-25T21:42:38.260Z,2.07
2024-01-25T21:45:10.093Z,2.06
2024-01-25T21:47:39.965Z,2.07
2024-01-25T21:50:10.201Z,2.06
2024-01-25T21:52:38.236Z,2.05
2024-01-25T21:55:11.440Z,2.05
2024-01-25T21:57:45.751Z,2.05
2024-01-25T22:00:14.936Z,2.04
2024-01-25T22:02:46.468Z,2.04
2024-01-25T22:05:15.791Z,2.03
2024-01-25T22:07:44.096Z,2.03
2024-01-25T22:10:11.940Z,2.02
2024-01-25T22:12:39.693Z,2.01
2024-01-25T22:15:08.106Z,2.00
2024-01-25T22:17:36.025Z,2.00
2024-01-25T22:20:04.478Z,1.99
2024-01-25T22:22:32.234Z,1.99
2024-01-25T22:25:00.942Z,1.99
2024-01-25T22:27:28.843Z,1.98
2024-01-25T22:29:58.671Z,1.97
2024-01-25T22:32:26.476Z,1.96
2024-01-25T22:34:54.416Z,1.96
2024-01-25T22:37:22.527Z,1.96
2024-01-25T22:39:50.280Z,1.95
2024-01-25T22:42:18.070Z,1.94
2024-01-25T22:44:45.859Z,1.94
2024-01-25T22:47:13.645Z,1.93
2024-01-25T22:49:41.543Z,1.92
2024-01-25T22:52:09.265Z,1.93
2024-01-25T22:54:39.322Z,1.93
2024-01-25T22:57:07.212Z,1.93
2024-01-25T22:59:35.191Z,1.93
2024-01-25T23:02:02.973Z,1.92
2024-01-25T23:04:30.704Z,1.92
2024-01-25T23:06:58.476Z,1.92
2024-01-25T23:09:26.656Z,1.90
2024-01-25T23:11:54.712Z,1.90
2024-01-25T23:14:23.241Z,1.89
2024-01-25T23:16:50.974Z,1.89
2024-01-25T23:19:20.783Z,1.89
2024-01-25T23:21:49.199Z,1.89
2024-01-25T23:24:16.943Z,1.89
2024-01-25T23:26:44.788Z,1.88
2024-01-25T23:29:13.858Z,1.88
2024-01-25T23:31:41.591Z,1.88
2024-01-25T23:34:10.225Z,1.88
2024-01-25T23:36:38.053Z,1.88
2024-01-25T23:39:06.188Z,1.88
2024-01-25T23:41:34.528Z,1.88
2024-01-25T23:44:02.422Z,1.87
2024-01-25T23:46:30.348Z,1.88
2024-01-25T23:48:59.027Z,1.87
2024-01-25T23:51:27.231Z,1.87
2024-01-25T23:53:55.388Z,1.87
2024-01-25T23:56:23.746Z,1.85
2024-01-25T23:58:51.492Z,1.85
